Time;durP1;ratioP1;P1;durP2;ratioP2;P2;SDS_P1;SDS_P2;PMS_P1;PMS_P2;Temp;Humidity;BMP_temperature;BMP_pressure;BME280_temperature;BME280_humidity;BME280_pressure;Samples;Min_cycle;Max_cycle;Signal;HPM_P1;HPM_P2
2022/01/02 00:01:46;;;;;;;3.42;1.13;;;32.10;92.50;;;;;;5086901;28;20020;-68
2022/01/02 00:04:18;;;;;;;3.42;1.27;;;32.10;92.20;;;;;;5088471;28;20020;-66
2022/01/02 00:06:48;;;;;;;;;;;31.80;91.50;;;;;;5091773;28;20018;-66
2022/01/02 00:09:31;;;;;;;1.77;0.90;;;31.80;91.10;;;;;;5084611;28;19905;-74
2022/01/02 00:12:14;;;;;;;2.03;1.20;;;31.90;91.20;;;;;;5088052;28;20020;-67
2022/01/02 00:14:46;;;;;;;3.35;1.20;;;32.40;89.90;;;;;;5076630;28;20479;-74
2022/01/02 00:17:16;;;;;;;4.93;1.00;;;32.50;88.00;;;;;;5082456;28;20029;-73
2022/01/02 00:19:52;;;;;;;3.05;1.45;;;32.70;88.80;;;;;;5068094;28;20089;-68
2022/01/02 00:22:25;;;;;;;2.58;1.58;;;33.00;86.40;;;;;;5086551;28;20515;-65
2022/01/02 00:24:53;;;;;;;4.78;2.15;;;32.90;87.00;;;;;;5087906;28;20474;-66
2022/01/02 00:27:22;;;;;;;1.88;0.85;;;33.40;84.60;;;;;;5087363;28;20103;-68
2022/01/02 00:29:51;;;;;;;5.70;1.10;;;33.50;80.20;;;;;;5089087;28;20051;-65
2022/01/02 00:32:20;;;;;;;2.28;1.05;;;33.40;83.40;;;;;;5084012;28;20152;-68
2022/01/02 00:34:53;;;;;;;2.85;1.20;;;33.80;85.00;;;;;;5076896;28;20020;-65
2022/01/02 00:37:20;;;;;;;4.50;2.30;;;34.20;78.60;;;;;;5079274;28;20408;-67
2022/01/02 00:39:47;;;;;;;3.95;1.05;;;34.60;76.90;;;;;;5087493;28;20061;-67
2022/01/02 00:42:35;;;;;;;4.55;1.70;;;34.30;74.50;;;;;;5061690;28;20555;-65
2022/01/02 00:45:14;;;;;;;4.22;1.10;;;33.90;79.00;;;;;;5084795;28;20031;-67
2022/01/02 00:47:52;;;;;;;3.53;1.00;;;34.00;75.20;;;;;;5087051;28;20024;-68
2022/01/02 00:50:43;;;;;;;3.38;0.98;;;33.90;74.90;;;;;;5086228;28;20028;-64
2022/01/02 00:53:11;;;;;;;1.83;0.88;;;34.00;75.90;;;;;;5065681;28;20701;-66
2022/01/02 00:55:41;;;;;;;4.22;1.10;;;34.30;77.30;;;;;;5067739;28;20118;-73
2022/01/02 00:58:14;;;;;;;3.22;1.10;;;34.60;75.30;;;;;;5084993;28;20020;-69
2022/01/02 01:00:48;;;;;;;2.20;1.00;;;34.90;75.30;;;;;;5083672;28;20115;-71
2022/01/02 01:03:30;;;;;;;1.80;0.95;;;34.80;75.30;;;;;;5083544;28;20047;-70
2022/01/02 01:06:00;;;;;;;3.15;1.05;;;35.00;70.50;;;;;;5082100;28;20343;-66
2022/01/02 01:08:31;;;;;;;3.00;1.63;;;34.70;71.80;;;;;;5086752;28;20020;-77
2022/01/02 01:10:59;;;;;;;3.13;1.03;;;35.00;74.00;;;;;;5064948;28;20062;-66
2022/01/02 01:13:27;;;;;;;3.10;1.88;;;34.90;70.40;;;;;;5082375;28;20038;-70
2022/01/02 01:15:54;;;;;;;2.95;1.10;;;34.70;70.10;;;;;;5082808;28;20024;-69
2022/01/02 01:18:22;;;;;;;2.65;1.23;;;34.70;69.40;;;;;;5065856;28;20016;-73
2022/01/02 01:20:51;;;;;;;3.38;0.98;;;34.60;73.20;;;;;;5080411;28;20017;-72
2022/01/02 01:23:18;;;;;;;4.95;1.33;;;34.80;72.30;;;;;;5086383;28;20353;-68
2022/01/02 01:25:46;;;;;;;2.58;0.80;;;34.90;73.90;;;;;;5083904;28;20023;-71
2022/01/02 01:28:15;;;;;;;4.05;0.88;;;35.30;68.60;;;;;;5082137;28;20567;-70
2022/01/02 01:30:42;;;;;;;5.05;1.40;;;35.40;67.20;;;;;;5085943;28;20028;-68
2022/01/02 01:33:09;;;;;;;1.67;0.80;;;35.40;69.10;;;;;;5083719;28;20024;-72
2022/01/02 01:35:37;;;;;;;2.58;1.00;;;35.70;68.90;;;;;;5084751;28;20036;-68
2022/01/02 01:38:04;;;;;;;2.78;0.98;;;36.20;63.70;;;;;;5083169;28;20103;-70
2022/01/02 01:40:40;;;;;;;1.73;0.88;;;36.40;64.70;;;;;;5084476;28;20471;-67
2022/01/02 01:43:09;;;;;;;3.42;1.10;;;36.20;66.70;;;;;;5081631;28;20028;-69
2022/01/02 01:45:37;;;;;;;1.80;0.85;;;36.40;63.80;;;;;;5063601;28;20394;-67
2022/01/02 01:48:06;;;;;;;3.17;1.00;;;36.80;62.60;;;;;;5087939;28;20012;-68
2022/01/02 01:50:40;;;;;;;1.42;0.70;;;36.80;64.10;;;;;;5084366;28;20039;-68
2022/01/02 01:53:08;;;;;;;1.63;0.80;;;37.00;62.90;;;;;;5079635;28;20035;-68
2022/01/02 01:55:37;;;;;;;1.83;0.90;;;36.80;59.60;;;;;;5061204;28;20489;-69
2022/01/02 01:58:05;;;;;;;1.85;0.80;;;36.70;59.90;;;;;;5062402;28;20378;-69
2022/01/02 02:00:33;;;;;;;1.52;0.70;;;36.50;61.10;;;;;;5080842;28;20024;-70
2022/01/02 02:03:01;;;;;;;1.92;0.95;;;36.40;63.10;;;;;;5077453;28;20012;-69
2022/01/02 02:05:28;;;;;;;1.98;0.77;;;36.60;61.30;;;;;;5081097;28;20020;-67
2022/01/02 02:07:55;;;;;;;2.95;0.95;;;36.60;59.10;;;;;;5080129;28;20020;-68
2022/01/02 02:10:27;;;;;;;2.22;0.80;;;36.30;59.20;;;;;;5083033;28;20165;-70
2022/01/02 02:12:57;;;;;;;4.10;0.90;;;36.60;62.00;;;;;;5079735;28;20058;-67
2022/01/02 02:15:26;;;;;;;1.67;0.90;;;37.20;60.40;;;;;;5063356;28;20020;-68
2022/01/02 02:17:53;;;;;;;1.40;0.73;;;37.50;58.70;;;;;;5084211;28;20027;-69
2022/01/02 02:20:24;;;;;;;3.05;1.35;;;38.00;55.70;;;;;;5082307;28;20630;-66
2022/01/02 02:22:55;;;;;;;1.90;1.23;;;38.00;56.50;;;;;;5080871;28;20016;-68
2022/01/02 02:25:25;;;;;;;3.47;0.95;;;38.10;55.30;;;;;;5080246;28;20032;-68
2022/01/02 02:27:58;;;;;;;1.95;0.80;;;38.20;57.40;;;;;;5084873;28;20025;-66
2022/01/02 02:30:27;;;;;;;1.38;0.80;;;38.30;53.80;;;;;;5083719;28;20025;-67
2022/01/02 02:32:56;;;;;;;2.35;0.80;;;38.30;54.60;;;;;;5066293;28;20107;-66
2022/01/02 02:35:24;;;;;;;3.00;1.42;;;38.20;52.80;;;;;;5081856;28;20028;-68
2022/01/02 02:37:51;;;;;;;1.42;1.05;;;38.20;55.50;;;;;;5080128;28;20099;-69
2022/01/02 02:40:20;;;;;;;3.63;1.38;;;38.40;51.70;;;;;;5080451;28;20485;-67
2022/01/02 02:42:52;;;;;;;2.30;1.05;;;37.90;52.60;;;;;;5079975;28;20016;-69
2022/01/02 02:51:23;;;;;;;2.35;0.90;;;38.10;52.90;;;;;;5087697;28;20039;-65
2022/01/02 02:53:51;;;;;;;3.30;1.30;;;38.60;55.70;;;;;;5084528;28;20069;-66
2022/01/02 02:58:49;;;;;;;2.65;1.13;;;38.80;55.00;;;;;;5088610;28;20027;-67
2022/01/02 03:01:22;;;;;;;2.53;0.85;;;39.10;57.10;;;;;;5086504;28;20458;-71
2022/01/02 03:03:49;;;;;;;4.00;1.15;;;38.80;55.60;;;;;;5087540;28;20024;-66
2022/01/02 03:06:18;;;;;;;2.58;1.27;;;38.60;57.80;;;;;;5088584;28;20023;-65
2022/01/02 03:08:46;;;;;;;3.92;1.35;;;37.90;59.60;;;;;;5088364;28;20016;-67
2022/01/02 03:11:16;;;;;;;3.67;1.20;;;38.10;57.30;;;;;;5084720;28;20319;-73
2022/01/02 03:13:44;;;;;;;3.85;1.17;;;38.00;60.10;;;;;;5082626;28;20146;-69
2022/01/02 03:16:11;;;;;;;3.25;1.15;;;38.10;59.70;;;;;;5088741;28;20044;-67
2022/01/02 03:18:39;;;;;;;5.10;1.23;;;38.50;57.40;;;;;;5085398;28;20762;-66
2022/01/02 03:21:07;;;;;;;2.40;0.95;;;39.10;57.10;;;;;;5084774;28;20512;-72
2022/01/02 03:23:34;;;;;;;2.92;1.20;;;39.30;57.30;;;;;;5065629;28;20031;-71
2022/01/02 03:26:01;;;;;;;1.95;1.20;;;39.10;57.80;;;;;;5086336;28;20086;-70
2022/01/02 03:28:28;;;;;;;4.38;1.20;;;39.10;57.10;;;;;;4737260;28;10000202;-68
2022/01/02 03:30:55;;;;;;;2.42;1.45;;;39.20;56.30;;;;;;5082272;28;20118;-66
2022/01/02 03:33:22;;;;;;;2.55;1.20;;;39.20;57.10;;;;;;5091039;28;20016;-66
2022/01/02 03:35:49;;;;;;;2.78;1.30;;;39.30;56.80;;;;;;5089566;28;20024;-66
2022/01/02 03:38:16;;;;;;;2.42;1.23;;;39.40;54.90;;;;;;5090565;28;20036;-68
2022/01/02 03:40:44;;;;;;;5.57;1.25;;;39.40;54.70;;;;;;5084303;28;20034;-64
2022/01/02 03:43:11;;;;;;;2.78;1.30;;;39.20;57.70;;;;;;5062784;28;20028;-70
2022/01/02 03:45:38;;;;;;;4.20;1.45;;;39.40;54.20;;;;;;5071434;28;20028;-64
2022/01/02 03:48:05;;;;;;;3.70;1.25;;;39.30;56.80;;;;;;5070454;28;20036;-71
2022/01/02 03:50:32;;;;;;;3.70;1.27;;;39.50;54.80;;;;;;5067145;28;20031;-67
2022/01/02 03:52:59;;;;;;;2.40;1.15;;;39.60;57.20;;;;;;5070284;28;20044;-67
2022/01/02 03:55:26;;;;;;;2.15;1.08;;;39.90;55.80;;;;;;5070722;28;20136;-68
2022/01/02 03:57:54;;;;;;;2.33;0.82;;;39.90;56.30;;;;;;5067166;28;20064;-66
2022/01/02 04:00:21;;;;;;;3.25;1.20;;;40.40;52.90;;;;;;5069095;28;20012;-66
2022/01/02 04:02:49;;;;;;;2.92;1.25;;;40.70;54.70;;;;;;5066616;28;20052;-67
2022/01/02 04:05:17;;;;;;;3.42;1.17;;;40.70;53.20;;;;;;5066582;28;20024;-67
2022/01/02 04:07:45;;;;;;;3.30;1.40;;;40.60;53.20;;;;;;5070759;28;20055;-68
2022/01/02 04:10:15;;;;;;;3.80;1.38;;;40.70;54.20;;;;;;5068938;28;20053;-66
2022/01/02 04:12:45;;;;;;;2.38;0.98;;;40.50;52.90;;;;;;5066632;28;20089;-66
2022/01/02 04:15:14;;;;;;;5.43;1.60;;;41.10;53.10;;;;;;5068248;28;20201;-65
2022/01/02 04:17:42;;;;;;;2.38;1.20;;;41.00;53.10;;;;;;5069454;28;20032;-72
2022/01/02 04:20:11;;;;;;;1.70;1.13;;;40.90;53.20;;;;;;5068890;28;20036;-68
2022/01/02 04:22:39;;;;;;;2.47;1.20;;;40.80;53.50;;;;;;5070490;28;20133;-70
2022/01/02 04:25:07;;;;;;;3.95;1.73;;;41.10;54.30;;;;;;5068939;28;20028;-67
2022/01/02 04:27:35;;;;;;;4.68;2.85;;;41.40;53.10;;;;;;5069112;28;20028;-66
2022/01/02 04:30:03;;;;;;;2.15;1.20;;;41.30;51.00;;;;;;5068583;28;20075;-67
2022/01/02 04:32:30;;;;;;;2.80;1.33;;;41.10;51.00;;;;;;5060478;28;20028;-66
2022/01/02 04:34:58;;;;;;;3.25;1.38;;;41.20;53.10;;;;;;5085555;28;20047;-68
2022/01/02 04:37:25;;;;;;;3.25;1.48;;;41.20;50.80;;;;;;5069884;28;20020;-69
2022/01/02 04:39:52;;;;;;;2.53;1.38;;;41.60;51.30;;;;;;5085297;28;20036;-65
2022/01/02 04:42:19;;;;;;;3.22;1.30;;;41.60;50.00;;;;;;5065887;28;20021;-66
2022/01/02 04:44:46;;;;;;;4.15;1.10;;;41.60;50.70;;;;;;5048542;28;20063;-69
2022/01/02 04:47:13;;;;;;;3.38;1.33;;;41.80;48.90;;;;;;5049514;28;20509;-68
2022/01/02 04:49:40;;;;;;;3.55;1.30;;;41.40;49.80;;;;;;5050150;28;20028;-64
2022/01/02 04:52:07;;;;;;;5.60;1.75;;;41.20;51.10;;;;;;5047516;28;20043;-65
2022/01/02 04:54:35;;;;;;;2.95;1.25;;;41.20;50.00;;;;;;5046295;28;20029;-66
2022/01/02 04:57:02;;;;;;;3.20;1.50;;;41.30;50.60;;;;;;5048974;28;20052;-69
2022/01/02 04:59:29;;;;;;;4.18;1.60;;;41.40;52.10;;;;;;5056415;28;20112;-68
2022/01/02 05:01:56;;;;;;;2.85;1.60;;;41.30;49.60;;;;;;5058131;28;20028;-69
2022/01/02 05:04:22;;;;;;;2.28;1.20;;;41.00;50.90;;;;;;5042470;28;20084;-69
2022/01/02 05:06:49;;;;;;;6.05;1.52;;;41.00;52.30;;;;;;5048756;28;20066;-67
2022/01/02 05:09:16;;;;;;;4.68;1.48;;;41.00;50.40;;;;;;5065630;28;20017;-67
2022/01/02 05:11:43;;;;;;;4.43;1.52;;;41.20;52.00;;;;;;5067417;28;20031;-68
2022/01/02 05:14:10;;;;;;;5.53;1.48;;;41.40;51.40;;;;;;5047189;28;20032;-68
2022/01/02 05:16:37;;;;;;;3.60;1.50;;;41.40;50.70;;;;;;5061346;28;20032;-66
2022/01/02 05:19:04;;;;;;;5.78;1.80;;;41.30;50.70;;;;;;5065090;28;20095;-65
2022/01/02 05:21:31;;;;;;;5.65;1.55;;;41.20;49.80;;;;;;5066725;28;20112;-72
2022/01/02 05:23:58;;;;;;;5.07;1.90;;;41.10;52.40;;;;;;5068147;28;20469;-67
2022/01/02 05:26:25;;;;;;;3.83;1.45;;;40.90;49.10;;;;;;5058128;28;20017;-71
2022/01/02 05:28:52;;;;;;;5.90;1.80;;;39.80;50.90;;;;;;5042626;28;20039;-67
2022/01/02 05:31:19;;;;;;;4.18;1.63;;;39.70;50.70;;;;;;5049184;28;20028;-68
2022/01/02 05:33:46;;;;;;;7.00;1.60;;;39.80;52.30;;;;;;5067305;28;20036;-66
2022/01/02 05:36:13;;;;;;;3.50;1.48;;;40.10;51.00;;;;;;5064580;28;20391;-67
2022/01/02 05:38:40;;;;;;;4.35;1.42;;;40.60;51.60;;;;;;5064807;28;20056;-64
2022/01/02 05:41:07;;;;;;;3.80;1.20;;;40.50;50.50;;;;;;5064189;28;20386;-67
2022/01/02 05:43:34;;;;;;;5.15;1.73;;;40.80;50.80;;;;;;5066377;28;20043;-65
2022/01/02 05:46:05;;;;;;;4.57;1.38;;;40.40;51.30;;;;;;5065306;28;20050;-70
2022/01/02 05:48:34;;;;;;;3.42;1.50;;;40.60;50.30;;;;;;5065382;28;20558;-67
2022/01/02 05:51:01;;;;;;;4.55;1.65;;;40.40;50.80;;;;;;5059990;28;20032;-64
2022/01/02 05:53:29;;;;;;;3.47;1.80;;;40.60;50.90;;;;;;5061896;28;20025;-64
2022/01/02 05:55:57;;;;;;;3.97;1.52;;;40.50;50.20;;;;;;5064356;28;20040;-69
2022/01/02 05:58:24;;;;;;;3.90;1.50;;;40.90;49.80;;;;;;5048341;28;20032;-66
2022/01/02 06:00:51;;;;;;;5.78;1.60;;;40.90;50.40;;;;;;5067511;28;20375;-66
2022/01/02 06:03:18;;;;;;;3.40;1.35;;;40.80;49.80;;;;;;5066397;28;20106;-66
2022/01/02 06:05:45;;;;;;;4.88;1.60;;;40.70;49.00;;;;;;5067163;28;20024;-72
2022/01/02 06:08:12;;;;;;;6.97;2.00;;;40.50;49.60;;;;;;5065838;28;20352;-66
2022/01/02 06:10:39;;;;;;;5.72;1.80;;;40.20;49.90;;;;;;5066529;28;20028;-66
2022/01/02 06:13:06;;;;;;;5.38;1.60;;;40.30;50.50;;;;;;5067143;28;20135;-71
2022/01/02 06:15:33;;;;;;;4.30;1.30;;;40.90;49.90;;;;;;5067538;28;20280;-66
2022/01/02 06:18:00;;;;;;;3.97;1.60;;;41.10;49.50;;;;;;5066236;28;20584;-68
2022/01/02 06:20:27;;;;;;;5.25;1.70;;;41.10;49.60;;;;;;5066454;28;20836;-70
2022/01/02 06:22:54;;;;;;;5.00;1.70;;;41.10;48.40;;;;;;5067849;28;20533;-69
2022/01/02 06:25:22;;;;;;;3.75;1.55;;;41.20;49.30;;;;;;5048725;28;20135;-68
2022/01/02 06:27:50;;;;;;;2.28;1.48;;;41.10;48.30;;;;;;5064725;28;20017;-65
2022/01/02 06:30:17;;;;;;;2.75;1.15;;;41.10;48.70;;;;;;5066454;28;20033;-69
2022/01/02 06:32:45;;;;;;;5.53;1.60;;;41.30;48.30;;;;;;5066304;28;20036;-69
2022/01/02 06:35:12;;;;;;;3.63;1.58;;;41.90;48.30;;;;;;5065554;28;20086;-67
2022/01/02 06:37:39;;;;;;;6.28;3.42;;;42.40;47.50;;;;;;5064931;28;20040;-73
2022/01/02 06:40:07;;;;;;;5.88;1.77;;;42.10;47.30;;;;;;5063582;28;20028;-70
2022/01/02 06:42:35;;;;;;;7.30;2.30;;;42.00;47.50;;;;;;5062259;28;20033;-66
2022/01/02 06:45:01;;;;;;;3.55;1.77;;;41.90;47.70;;;;;;5062935;28;20379;-65
2022/01/02 06:47:29;;;;;;;6.85;1.90;;;41.70;47.70;;;;;;5062488;28;20017;-69
2022/01/02 06:49:55;;;;;;;5.45;2.58;;;41.80;48.30;;;;;;5066395;28;20376;-71
2022/01/02 06:52:22;;;;;;;5.45;2.25;;;42.20;48.30;;;;;;5066478;28;20021;-66
2022/01/02 06:54:53;;;;;;;4.28;1.55;;;42.20;48.00;;;;;;5067207;28;20040;-70
2022/01/02 06:57:23;;;;;;;3.80;2.10;;;42.70;46.90;;;;;;5059839;28;20020;-70
2022/01/02 06:59:51;;;;;;;3.03;1.30;;;42.90;46.50;;;;;;5066680;28;20023;-71
2022/01/02 07:02:18;;;;;;;4.90;1.60;;;42.40;47.20;;;;;;5063695;28;20027;-70
2022/01/02 07:04:45;;;;;;;3.30;1.65;;;42.40;47.60;;;;;;5064299;28;20082;-67
2022/01/02 07:07:12;;;;;;;4.20;1.40;;;42.70;47.40;;;;;;5066518;28;20018;-71
2022/01/02 07:09:39;;;;;;;4.25;1.92;;;42.40;47.30;;;;;;5066835;28;20028;-72
2022/01/02 07:12:07;;;;;;;4.55;2.20;;;41.50;48.60;;;;;;5066255;28;20044;-66
2022/01/02 07:14:34;;;;;;;5.50;1.77;;;39.90;50.40;;;;;;5063403;28;20029;-69
2022/01/02 07:17:01;;;;;;;4.78;1.83;;;38.20;52.30;;;;;;5062352;28;20037;-67
2022/01/02 07:19:28;;;;;;;4.55;1.60;;;37.20;54.30;;;;;;5064233;28;20924;-72
2022/01/02 07:21:58;;;;;;;4.00;2.03;;;37.20;54.30;;;;;;5063864;28;20039;-72
2022/01/02 07:24:26;;;;;;;4.80;1.58;;;38.20;52.60;;;;;;5057626;28;20028;-67
2022/01/02 07:26:53;;;;;;;5.88;1.83;;;39.20;51.80;;;;;;5060973;28;20032;-65
2022/01/02 07:29:20;;;;;;;5.75;1.80;;;39.60;50.70;;;;;;5048930;28;20095;-65
2022/01/02 07:31:47;;;;;;;4.38;1.98;;;39.80;50.30;;;;;;5065261;28;20052;-65
2022/01/02 07:34:14;;;;;;;5.18;1.38;;;39.80;49.40;;;;;;5064623;28;20441;-71
2022/01/02 07:36:44;;;;;;;4.10;1.80;;;40.20;49.90;;;;;;5064089;28;20025;-71
2022/01/02 07:39:15;;;;;;;4.28;1.50;;;40.10;49.60;;;;;;5067164;28;20037;-66
2022/01/02 07:41:43;;;;;;;3.63;1.50;;;40.30;48.80;;;;;;5066579;28;20705;-74
2022/01/02 07:44:10;;;;;;;8.02;1.52;;;39.80;48.50;;;;;;5067412;28;20032;-66
2022/01/02 07:46:37;;;;;;;4.90;1.33;;;39.30;48.50;;;;;;5067983;28;20060;-66
2022/01/02 07:49:04;;;;;;;4.55;2.53;;;39.10;48.50;;;;;;5069433;28;20123;-67
2022/01/02 07:51:31;;;;;;;6.82;5.15;;;39.20;48.80;;;;;;5041952;28;20425;-70
2022/01/02 07:54:00;;;;;;;4.85;2.38;;;39.40;48.60;;;;;;5045610;28;20044;-71
2022/01/02 07:56:27;;;;;;;4.03;1.67;;;39.50;48.90;;;;;;5062435;28;20024;-66
2022/01/02 07:58:57;;;;;;;5.80;2.20;;;39.50;48.70;;;;;;5067906;28;20020;-71
2022/01/02 08:01:24;;;;;;;6.30;4.10;;;39.30;48.60;;;;;;5066641;28;20025;-66
2022/01/02 08:03:52;;;;;;;5.85;1.50;;;39.00;49.40;;;;;;5069036;28;20031;-71
2022/01/02 08:06:19;;;;;;;6.00;1.63;;;38.90;49.50;;;;;;5066076;28;20116;-66
2022/01/02 08:08:46;;;;;;;6.97;2.35;;;38.00;50.60;;;;;;5065328;28;20107;-66
2022/01/02 08:11:17;;;;;;;5.72;2.00;;;37.10;52.50;;;;;;5068196;28;20032;-67
2022/01/02 08:13:44;;;;;;;4.20;1.85;;;36.50;53.80;;;;;;5069424;28;20414;-72
2022/01/02 08:16:12;;;;;;;6.15;1.90;;;36.00;55.10;;;;;;5065696;28;20115;-66
2022/01/02 08:18:40;;;;;;;5.13;1.33;;;35.90;55.30;;;;;;5067115;28;20044;-70
2022/01/02 08:21:08;;;;;;;4.40;1.80;;;35.60;56.00;;;;;;5066608;28;20463;-66
2022/01/02 08:23:35;;;;;;;4.50;1.77;;;35.00;56.70;;;;;;5064779;28;20025;-69
2022/01/02 08:26:03;;;;;;;5.47;1.65;;;33.90;59.30;;;;;;5064263;28;20029;-69
2022/01/02 08:28:30;;;;;;;5.97;1.90;;;33.10;61.60;;;;;;5063788;28;20799;-66
2022/01/02 08:30:57;;;;;;;3.42;1.75;;;32.80;62.50;;;;;;5062679;28;20033;-66
2022/01/02 08:33:24;;;;;;;7.30;2.22;;;32.50;63.30;;;;;;5062852;28;20028;-70
2022/01/02 08:35:51;;;;;;;7.13;2.05;;;31.90;64.30;;;;;;5064205;28;20025;-66
2022/01/02 08:38:18;;;;;;;8.35;2.63;;;31.40;66.10;;;;;;5046789;28;20056;-73
2022/01/02 08:40:45;;;;;;;6.72;1.90;;;30.90;68.30;;;;;;5063303;28;20032;-69
2022/01/02 08:43:12;;;;;;;6.43;1.75;;;30.50;69.90;;;;;;5063553;28;20090;-67
2022/01/02 08:45:39;;;;;;;7.28;1.70;;;30.30;71.30;;;;;;5064323;28;20048;-67
2022/01/02 08:48:06;;;;;;;7.38;2.35;;;30.10;72.40;;;;;;5062690;28;20056;-67
2022/01/02 08:50:34;;;;;;;10.30;2.05;;;29.70;74.40;;;;;;5060028;28;20029;-68
2022/01/02 08:53:01;;;;;;;4.35;1.80;;;29.30;75.20;;;;;;5062746;28;20028;-70
2022/01/02 08:55:28;;;;;;;5.50;1.60;;;29.10;75.20;;;;;;5044841;28;20575;-74
2022/01/02 08:57:55;;;;;;;7.50;1.75;;;28.70;75.80;;;;;;5064710;28;20025;-71
2022/01/02 09:00:24;;;;;;;6.95;1.50;;;28.30;76.90;;;;;;5045111;28;20379;-71
2022/01/02 09:02:51;;;;;;;5.45;1.50;;;28.10;78.30;;;;;;5064135;28;20028;-67
2022/01/02 09:05:18;;;;;;;5.93;1.73;;;28.00;78.60;;;;;;5059588;28;20035;-68
2022/01/02 09:07:46;;;;;;;8.13;1.42;;;27.80;79.10;;;;;;5064864;28;20047;-68
2022/01/02 09:10:15;;;;;;;6.65;2.20;;;27.60;80.10;;;;;;5061907;28;20024;-69
2022/01/02 09:12:42;;;;;;;7.95;2.17;;;27.40;81.30;;;;;;5065234;28;20041;-68
2022/01/02 09:15:10;;;;;;;5.97;1.90;;;27.30;82.70;;;;;;5064454;28;20048;-71
2022/01/02 09:17:37;;;;;;;6.75;1.52;;;27.10;84.40;;;;;;5062477;28;20037;-67
2022/01/02 09:20:06;;;;;;;3.95;1.13;;;26.90;85.30;;;;;;5061287;28;20591;-67
2022/01/02 09:22:34;;;;;;;5.57;1.50;;;26.90;88.30;;;;;;5037065;28;20025;-68
